Time;durP1;ratioP1;P1;durP2;ratioP2;P2;SDS_P1;SDS_P2;PMS_P1;PMS_P2;Temp;Humidity;BMP_temperature;BMP_pressure;BME280_temperature;BME280_humidity;BME280_pressure;Samples;Min_cycle;Max_cycle;Signal;HPM_P1;HPM_P2
2021/04/12 00:00:59;;;;;;;6.60;3.65;;;13.10;46.60;;;;;;5088683;28;20066;-69
2021/04/12 00:03:34;;;;;;;2.35;1.40;;;13.10;46.40;;;;;;5075276;28;20074;-69
2021/04/12 00:06:19;;;;;;;4.15;1.98;;;13.00;46.60;;;;;;5071326;28;20039;-70
2021/04/12 00:09:26;;;;;;;5.88;3.17;;;13.00;46.90;;;;;;5079604;28;20092;-70
2021/04/12 00:12:05;;;;;;;5.22;2.75;;;13.00;46.70;;;;;;5071518;28;20172;-70
2021/04/12 00:14:37;;;;;;;5.57;3.28;;;12.90;46.90;;;;;;5071435;28;20498;-70
2021/04/12 00:17:26;;;;;;;6.20;2.85;;;12.90;46.80;;;;;;5073002;28;20084;-69
2021/04/12 00:20:24;;;;;;;6.78;3.85;;;12.90;46.90;;;;;;5067709;28;20086;-70
2021/04/12 00:23:34;;;;;;;7.38;3.33;;;12.80;47.00;;;;;;5088474;28;20028;-71
2021/04/12 00:26:06;;;;;;;6.93;3.10;;;12.90;47.00;;;;;;5064751;28;20435;-70
2021/04/12 00:29:02;;;;;;;7.53;3.88;;;12.80;46.70;;;;;;5065615;28;20028;-69
2021/04/12 00:31:55;;;;;;;14.93;7.35;;;12.70;47.40;;;;;;5069462;28;20039;-69
2021/04/12 00:34:57;;;;;;;6.57;4.25;;;12.70;47.50;;;;;;5071376;28;20043;-70
2021/04/12 00:37:40;;;;;;;6.47;2.80;;;12.70;47.70;;;;;;5053093;28;20028;-70
2021/04/12 00:40:18;;;;;;;4.18;1.80;;;12.70;47.50;;;;;;5074802;28;20469;-70
2021/04/12 00:43:08;;;;;;;3.00;1.67;;;12.60;47.70;;;;;;5073010;28;20378;-69
2021/04/12 00:45:43;;;;;;;1.77;0.93;;;12.60;47.60;;;;;;5082622;28;20512;-70
2021/04/12 00:48:31;;;;;;;0.93;0.65;;;12.60;48.60;;;;;;5052860;28;20032;-69
2021/04/12 00:51:02;;;;;;;1.65;1.13;;;12.60;47.90;;;;;;5062285;28;20371;-69
2021/04/12 00:53:52;;;;;;;1.23;0.90;;;12.60;47.70;;;;;;5090823;28;20025;-70
2021/04/12 00:56:43;;;;;;;4.18;0.90;;;12.60;48.20;;;;;;5087636;28;20021;-69
2021/04/12 00:59:31;;;;;;;1.52;1.00;;;12.60;48.20;;;;;;5074847;28;20029;-69
2021/04/12 01:02:22;;;;;;;3.85;0.90;;;12.60;48.10;;;;;;5082495;28;20024;-68
2021/04/12 01:05:08;;;;;;;3.90;0.95;;;12.70;48.60;;;;;;5091010;28;20451;-70
2021/04/12 01:07:36;;;;;;;2.28;0.80;;;12.70;48.60;;;;;;5091223;28;20466;-70
2021/04/12 01:10:33;;;;;;;1.90;0.73;;;12.70;48.60;;;;;;5077693;28;20043;-69
2021/04/12 01:13:43;;;;;;;1.10;0.80;;;12.70;48.60;;;;;;5070850;28;20024;-69
2021/04/12 01:16:50;;;;;;;1.63;1.00;;;12.70;49.30;;;;;;5090727;28;20533;-69
2021/04/12 01:19:25;;;;;;;4.88;1.73;;;12.60;49.60;;;;;;4988781;28;20041;-69
2021/04/12 01:22:24;;;;;;;2.97;1.17;;;12.60;49.70;;;;;;4989276;28;20034;-70
2021/04/12 01:25:17;;;;;;;1.52;0.90;;;12.70;50.00;;;;;;5061011;28;20413;-70
2021/04/12 01:28:04;;;;;;;1.23;0.90;;;12.60;50.30;;;;;;5090617;28;20077;-70
2021/04/12 01:30:57;;;;;;;1.15;0.85;;;12.60;50.20;;;;;;5076706;28;20037;-71
2021/04/12 01:33:36;;;;;;;1.60;1.08;;;12.60;50.20;;;;;;5070648;28;20025;-69
2021/04/12 01:36:23;;;;;;;4.55;1.20;;;12.70;50.20;;;;;;5091034;28;20028;-69
2021/04/12 01:38:57;;;;;;;2.03;1.17;;;12.70;50.00;;;;;;5094165;28;20069;-70
2021/04/12 01:41:45;;;;;;;2.58;1.15;;;12.70;50.20;;;;;;5074613;28;20049;-69
2021/04/12 01:44:27;;;;;;;1.77;0.98;;;12.70;50.30;;;;;;5077798;28;20460;-70
2021/04/12 01:47:06;;;;;;;2.08;1.08;;;12.70;50.10;;;;;;5094409;28;20078;-70
2021/04/12 01:50:03;;;;;;;4.70;0.95;;;12.70;49.90;;;;;;5069366;28;20051;-69
2021/04/12 01:52:50;;;;;;;2.08;0.88;;;12.70;49.30;;;;;;5086962;28;20103;-69
2021/04/12 01:55:46;;;;;;;1.10;0.80;;;12.70;49.10;;;;;;5093917;28;20111;-69
2021/04/12 01:58:37;;;;;;;1.42;1.02;;;12.70;49.10;;;;;;5075627;28;20024;-68
2021/04/12 02:01:26;;;;;;;1.90;1.00;;;12.60;49.60;;;;;;5075115;28;20551;-69
2021/04/12 02:04:03;;;;;;;3.97;1.40;;;12.60;50.20;;;;;;5073945;28;20032;-69
2021/04/12 02:06:28;;;;;;;2.83;1.50;;;12.50;50.80;;;;;;5091125;28;20402;-70
2021/04/12 02:09:23;;;;;;;3.75;1.45;;;12.50;50.80;;;;;;5089419;28;20021;-68
2021/04/12 02:11:52;;;;;;;4.18;1.42;;;12.50;51.10;;;;;;5073563;28;20029;-69
2021/04/12 02:14:39;;;;;;;5.03;1.58;;;12.40;51.00;;;;;;5078223;28;20029;-69
2021/04/12 02:17:05;;;;;;;3.08;1.45;;;12.40;51.10;;;;;;5093949;28;20020;-69
2021/04/12 02:20:08;;;;;;;2.00;1.30;;;12.40;51.10;;;;;;5088251;28;20028;-69
2021/04/12 02:22:56;;;;;;;2.47;1.23;;;12.40;50.80;;;;;;5055392;28;20028;-69
2021/04/12 02:25:32;;;;;;;2.75;1.65;;;12.40;50.80;;;;;;5086811;28;20397;-69
2021/04/12 02:28:09;;;;;;;3.28;1.20;;;12.40;51.00;;;;;;5093509;28;20028;-69
2021/04/12 02:30:50;;;;;;;2.28;1.25;;;12.40;50.90;;;;;;5079443;28;20041;-68
2021/04/12 02:33:34;;;;;;;4.88;1.67;;;12.40;50.90;;;;;;5073347;28;20021;-69
2021/04/12 02:36:06;;;;;;;2.33;1.75;;;12.40;51.00;;;;;;5091585;28;20075;-68
2021/04/12 02:39:19;;;;;;;3.72;2.10;;;12.40;50.80;;;;;;5093425;28;20024;-69
2021/04/12 02:41:54;;;;;;;6.63;2.08;;;12.40;50.90;;;;;;5017844;28;20040;-69
2021/04/12 02:44:45;;;;;;;2.38;1.50;;;12.40;51.10;;;;;;5073036;28;20032;-69
2021/04/12 02:47:32;;;;;;;4.50;1.52;;;12.30;50.90;;;;;;5074152;28;20151;-69
2021/04/12 02:50:10;;;;;;;4.10;2.05;;;12.30;51.10;;;;;;5083234;28;20055;-69
2021/04/12 02:52:57;;;;;;;3.42;1.95;;;12.30;51.10;;;;;;5055271;28;20383;-69
2021/04/12 02:55:42;;;;;;;6.22;1.80;;;12.30;51.20;;;;;;5086548;28;20032;-69
2021/04/12 02:58:43;;;;;;;10.10;2.20;;;12.30;51.30;;;;;;5058985;28;20032;-69
2021/04/12 03:02:06;;;;;;;4.78;2.22;;;12.30;51.40;;;;;;5017809;28;20113;-68
2021/04/12 03:04:34;;;;;;;3.88;2.10;;;12.40;51.50;;;;;;5016998;28;20048;-68
2021/04/12 03:07:37;;;;;;;7.00;2.25;;;12.40;51.30;;;;;;5030343;28;20160;-69
2021/04/12 03:10:35;;;;;;;9.07;2.28;;;12.40;51.50;;;;;;5070613;28;20515;-69
2021/04/12 03:13:37;;;;;;;2.38;1.65;;;12.40;51.40;;;;;;5092775;28;20039;-70
2021/04/12 03:16:05;;;;;;;4.15;1.80;;;12.30;51.40;;;;;;5092243;28;20032;-68
2021/04/12 03:18:34;;;;;;;3.33;1.80;;;12.30;51.30;;;;;;5092504;28;20384;-68
2021/04/12 03:21:31;;;;;;;3.10;1.98;;;12.30;51.50;;;;;;5073571;28;20085;-69
2021/04/12 03:24:05;;;;;;;2.95;2.00;;;12.30;51.50;;;;;;5074006;28;20028;-69
2021/04/12 03:26:43;;;;;;;2.35;1.95;;;12.20;51.90;;;;;;5092490;28;20043;-69
2021/04/12 03:29:32;;;;;;;4.65;2.72;;;12.20;52.10;;;;;;5092030;28;20032;-69
2021/04/12 03:32:13;;;;;;;4.43;2.20;;;12.20;52.20;;;;;;5066612;28;20115;-69
2021/04/12 03:34:50;;;;;;;3.75;2.28;;;12.20;52.50;;;;;;5073542;28;20088;-68
2021/04/12 03:37:25;;;;;;;3.28;2.13;;;12.30;52.40;;;;;;5091940;28;20028;-68
2021/04/12 03:40:07;;;;;;;4.78;2.42;;;12.30;52.20;;;;;;5067950;28;20024;-69
2021/04/12 03:42:32;;;;;;;3.75;2.28;;;12.30;52.20;;;;;;5071727;28;20035;-69
2021/04/12 03:45:13;;;;;;;4.13;2.60;;;12.30;52.10;;;;;;5080576;28;20028;-68
2021/04/12 03:48:08;;;;;;;9.55;3.20;;;12.40;52.60;;;;;;5073700;28;20032;-69
2021/04/12 03:50:59;;;;;;;5.55;3.17;;;12.40;52.40;;;;;;5059750;28;20040;-68
2021/04/12 03:53:46;;;;;;;6.03;2.88;;;12.40;52.50;;;;;;5088900;28;20036;-68
2021/04/12 03:56:53;;;;;;;3.78;2.65;;;12.40;52.50;;;;;;5089713;28;20020;-68
2021/04/12 03:59:31;;;;;;;3.45;2.35;;;12.40;52.30;;;;;;5007197;28;20045;-69
2021/04/12 04:02:29;;;;;;;6.22;2.28;;;12.40;52.50;;;;;;5073210;28;20027;-69
2021/04/12 04:05:19;;;;;;;7.25;2.42;;;12.30;52.60;;;;;;5092395;28;20035;-69
2021/04/12 04:08:20;;;;;;;6.95;2.30;;;12.30;52.60;;;;;;5092116;28;20099;-68
2021/04/12 04:11:05;;;;;;;4.43;2.08;;;12.30;52.50;;;;;;5045194;28;20047;-68
2021/04/12 04:13:49;;;;;;;;;;;12.30;52.70;;;;;;5091441;28;20085;-69
2021/04/12 04:16:24;;;;;;;4.13;2.50;;;12.30;52.00;;;;;;5077861;28;19912;-69
2021/04/12 04:18:59;;;;;;;11.20;3.33;;;12.30;53.60;;;;;;5091948;28;20492;-68
2021/04/12 04:21:55;;;;;;;7.22;3.33;;;12.20;53.50;;;;;;5074227;28;20538;-68
2021/04/12 04:24:39;;;;;;;11.25;3.42;;;12.20;53.90;;;;;;5072310;28;20039;-68
2021/04/12 04:27:30;;;;;;;7.28;3.38;;;12.20;54.10;;;;;;5072901;28;20040;-69
2021/04/12 04:30:27;;;;;;;6.15;3.13;;;12.30;54.30;;;;;;5086139;28;20040;-69
2021/04/12 04:32:52;;;;;;;7.47;3.50;;;12.30;54.30;;;;;;5083041;28;20097;-69
2021/04/12 04:35:43;;;;;;;5.95;3.05;;;12.40;54.30;;;;;;5073796;28;20028;-68
2021/04/12 04:38:39;;;;;;;6.70;3.17;;;12.40;54.50;;;;;;5092284;28;20038;-69
2021/04/12 04:41:31;;;;;;;10.35;4.40;;;12.50;54.70;;;;;;5092084;28;20027;-69
2021/04/12 04:44:22;;;;;;;10.00;3.10;;;12.60;54.60;;;;;;5073734;28;20520;-69
2021/04/12 04:47:17;;;;;;;2.60;2.05;;;12.60;54.60;;;;;;5089885;28;20036;-69
2021/04/12 04:50:20;;;;;;;3.65;2.80;;;12.70;54.40;;;;;;5091542;28;20052;-69
2021/04/12 04:53:04;;;;;;;9.05;3.00;;;12.70;54.40;;;;;;5078387;28;20037;-68
2021/04/12 04:55:45;;;;;;;15.98;3.53;;;12.80;54.50;;;;;;5054704;28;20052;-68
2021/04/12 04:58:23;;;;;;;8.88;3.38;;;12.90;55.00;;;;;;5080492;28;20031;-69
2021/04/12 05:01:32;;;;;;;10.15;3.20;;;13.00;54.80;;;;;;5091619;28;20413;-70
2021/04/12 05:04:07;;;;;;;5.75;2.42;;;13.10;54.70;;;;;;5039636;28;20045;-69
2021/04/12 05:06:52;;;;;;;11.27;3.20;;;13.20;54.60;;;;;;5078221;28;20051;-69
2021/04/12 05:09:24;;;;;;;;;;;13.30;54.90;;;;;;5092276;28;20024;-70
2021/04/12 05:12:21;;;;;;;10.52;3.42;;;13.40;53.90;;;;;;5076091;28;19994;-69
2021/04/12 05:15:04;;;;;;;5.18;3.40;;;13.50;54.40;;;;;;5079599;28;20030;-69
2021/04/12 05:17:48;;;;;;;4.00;2.88;;;13.70;54.60;;;;;;5075535;28;20044;-69
2021/04/12 05:20:23;;;;;;;9.85;3.33;;;13.80;54.50;;;;;;5085744;28;20032;-68
2021/04/12 05:23:12;;;;;;;4.95;2.88;;;14.00;54.30;;;;;;5094586;28;20027;-69
2021/04/12 05:26:03;;;;;;;2.97;2.47;;;14.10;54.20;;;;;;5095670;28;20403;-69
2021/04/12 05:28:52;;;;;;;6.65;2.70;;;14.20;53.90;;;;;;5095356;28;20096;-69
2021/04/12 05:31:50;;;;;;;5.00;3.15;;;14.40;53.80;;;;;;5095411;28;20023;-69
2021/04/12 05:34:34;;;;;;;4.15;2.80;;;14.60;53.50;;;;;;5087815;28;20032;-69
2021/04/12 05:37:15;;;;;;;9.45;3.58;;;14.80;53.30;;;;;;5075084;28;20541;-70
2021/04/12 05:40:10;;;;;;;6.00;4.20;;;15.00;53.50;;;;;;5074940;28;20112;-69
2021/04/12 05:43:00;;;;;;;3.97;3.22;;;15.20;52.50;;;;;;5075927;28;20035;-68
2021/04/12 05:45:44;;;;;;;6.82;3.20;;;15.30;52.00;;;;;;5074847;28;20040;-69
2021/04/12 05:48:25;;;;;;;;;;;15.50;51.80;;;;;;5091025;28;20439;-69
2021/04/12 05:51:09;;;;;;;10.88;3.25;;;15.50;51.40;;;;;;5094871;28;19916;-69
2021/04/12 05:54:02;;;;;;;3.22;2.58;;;15.60;51.10;;;;;;5087170;28;20031;-70
2021/04/12 05:56:52;;;;;;;3.08;2.50;;;15.60;50.90;;;;;;5089869;28;20028;-69
2021/04/12 05:59:40;;;;;;;5.90;4.00;;;15.70;50.90;;;;;;5092663;28;20024;-69
2021/04/12 06:02:26;;;;;;;10.00;5.10;;;15.70;50.90;;;;;;5094856;28;20016;-69
2021/04/12 06:04:58;;;;;;;7.85;3.60;;;15.70;50.80;;;;;;5074671;28;20040;-70
2021/04/12 06:07:42;;;;;;;5.32;3.25;;;15.80;50.80;;;;;;5074589;28;20381;-69
2021/04/12 06:10:16;;;;;;;6.03;3.47;;;15.80;50.80;;;;;;5057013;28;20028;-69
2021/04/12 06:13:00;;;;;;;4.25;2.83;;;15.80;50.70;;;;;;5075949;28;20021;-70
2021/04/12 06:15:47;;;;;;;4.70;2.92;;;15.80;50.60;;;;;;5085480;28;20024;-68
2021/04/12 06:18:51;;;;;;;5.80;2.65;;;15.70;50.60;;;;;;5076470;28;20028;-69
2021/04/12 06:21:35;;;;;;;3.80;2.95;;;15.70;50.60;;;;;;5075788;28;20021;-69
2021/04/12 06:24:28;;;;;;;5.07;3.20;;;15.80;50.70;;;;;;5076678;28;20060;-69
2021/04/12 06:27:20;;;;;;;5.03;3.47;;;15.70;50.70;;;;;;5094190;28;20028;-69
2021/04/12 06:30:18;;;;;;;5.28;3.40;;;15.70;50.80;;;;;;5088140;28;20558;-69
2021/04/12 06:33:21;;;;;;;6.25;3.65;;;15.70;50.80;;;;;;5074040;28;20032;-69
2021/04/12 06:36:00;;;;;;;8.20;3.63;;;15.70;50.90;;;;;;5074059;28;20024;-69
2021/04/12 06:38:29;;;;;;;6.85;4.20;;;15.70;51.10;;;;;;5074181;28;20024;-69
2021/04/12 06:41:31;;;;;;;11.93;4.40;;;15.60;51.20;;;;;;5073993;28;20074;-70
2021/04/12 06:44:20;;;;;;;7.70;4.95;;;15.60;51.10;;;;;;5073887;28;20036;-69
2021/04/12 06:47:13;;;;;;;4.70;3.55;;;15.70;51.30;;;;;;5086555;28;20024;-69
2021/04/12 06:50:09;;;;;;;4.97;3.53;;;15.80;51.40;;;;;;5089913;28;20115;-68
2021/04/12 06:53:11;;;;;;;4.95;3.40;;;15.90;51.40;;;;;;5092294;28;20028;-69
2021/04/12 06:55:46;;;;;;;3.70;3.13;;;16.10;51.30;;;;;;5094464;28;20098;-69
2021/04/12 06:58:37;;;;;;;5.05;3.53;;;16.20;50.90;;;;;;5083284;28;20012;-68
2021/04/12 07:01:08;;;;;;;4.68;3.63;;;16.30;50.60;;;;;;5082084;28;20034;-68
2021/04/12 07:03:55;;;;;;;5.88;4.40;;;16.40;50.20;;;;;;5059434;28;20036;-69
2021/04/12 07:06:42;;;;;;;6.63;3.33;;;16.50;49.90;;;;;;5072534;28;20021;-69
2021/04/12 07:09:44;;;;;;;4.43;3.72;;;16.50;49.80;;;;;;5076185;28;20024;-68
2021/04/12 07:12:54;;;;;;;6.65;3.50;;;16.60;49.70;;;;;;5093015;28;20024;-69
2021/04/12 07:16:04;;;;;;;7.97;3.63;;;16.60;49.70;;;;;;5093227;28;20050;-69
2021/04/12 07:19:17;;;;;;;11.48;4.25;;;16.60;49.80;;;;;;5093281;28;20137;-69
2021/04/12 07:22:20;;;;;;;9.20;4.05;;;16.70;49.70;;;;;;5011577;28;20072;-69
2021/04/12 07:25:17;;;;;;;7.45;3.83;;;16.80;49.60;;;;;;5067137;28;20016;-68
2021/04/12 07:28:19;;;;;;;5.70;3.90;;;16.90;49.40;;;;;;5061523;28;20028;-69
2021/04/12 07:31:06;;;;;;;105.65;13.15;;;17.00;49.20;;;;;;5092643;28;20024;-69
2021/04/12 07:33:45;;;;;;;49.08;6.78;;;17.10;48.90;;;;;;5091700;28;20035;-76
2021/04/12 07:36:23;;;;;;;6.20;4.10;;;17.20;48.80;;;;;;5074497;28;20119;-76
2021/04/12 07:38:58;;;;;;;8.18;2.78;;;17.30;48.70;;;;;;5079751;28;20028;-77
2021/04/12 07:41:51;;;;;;;10.27;3.60;;;17.40;48.50;;;;;;5073845;28;20020;-79
2021/04/12 07:44:45;;;;;;;5.13;3.60;;;17.60;48.40;;;;;;5082214;28;20031;-77
2021/04/12 07:47:52;;;;;;;4.03;3.33;;;17.80;47.80;;;;;;5073289;28;20103;-79
2021/04/12 07:50:55;;;;;;;5.45;3.95;;;17.90;47.80;;;;;;5034562;28;20062;-79
2021/04/12 07:53:56;;;;;;;3.45;3.05;;;18.00;47.30;;;;;;5067632;28;20035;-78
2021/04/12 07:56:54;;;;;;;8.80;3.15;;;18.10;47.00;;;;;;5083514;28;20024;-74
2021/04/12 07:59:38;;;;;;;9.75;3.20;;;18.20;46.60;;;;;;5077922;28;20052;-77
2021/04/12 08:02:43;;;;;;;3.97;3.40;;;18.30;46.40;;;;;;5079570;28;20024;-72
2021/04/12 08:05:51;;;;;;;3.80;3.40;;;18.40;46.30;;;;;;5073809;28;20039;-76
2021/04/12 08:08:36;;;;;;;4.00;3.40;;;18.50;45.90;;;;;;4985788;28;20038;-68
2021/04/12 08:11:14;;;;;;;6.57;3.75;;;18.60;45.80;;;;;;5090349;28;20042;-76
2021/04/12 08:13:49;;;;;;;7.38;5.25;;;18.70;45.40;;;;;;5071794;28;20029;-83
2021/04/12 08:16:33;;;;;;;4.82;4.25;;;18.70;45.30;;;;;;5071787;28;20025;-72
2021/04/12 08:19:10;;;;;;;;;;;18.80;45.20;;;;;;5070632;28;20031;-76
2021/04/12 08:22:01;;;;;;;7.65;4.30;;;18.90;45.70;;;;;;5086219;28;20361;-78
2021/04/12 08:24:44;;;;;;;3.90;3.50;;;18.90;44.80;;;;;;5071578;28;20066;-77
2021/04/12 08:27:27;;;;;;;4.03;3.60;;;18.80;44.50;;;;;;5053660;28;20039;-77
2021/04/12 08:30:20;;;;;;;4.47;3.28;;;18.80;44.60;;;;;;5053704;28;20259;-74
2021/04/12 08:33:23;;;;;;;6.13;3.65;;;18.70;44.40;;;;;;5071606;28;20024;-72
2021/04/12 08:36:24;;;;;;;6.18;3.38;;;18.60;44.80;;;;;;5071377;28;20032;-77
2021/04/12 08:39:21;;;;;;;3.80;3.30;;;18.60;44.70;;;;;;5086645;28;20036;-75
2021/04/12 08:42:17;;;;;;;3.45;2.85;;;18.40;44.70;;;;;;5091972;28;20036;-75
2021/04/12 08:45:12;;;;;;;10.38;2.83;;;18.40;45.00;;;;;;5061356;28;20035;-82
2021/04/12 08:47:48;;;;;;;6.50;3.55;;;18.30;45.10;;;;;;5067745;28;20036;-75
2021/04/12 08:50:49;;;;;;;11.38;3.38;;;18.30;45.20;;;;;;5070845;28;20052;-71
2021/04/12 08:53:50;;;;;;;7.50;3.17;;;18.30;45.30;;;;;;5083667;28;20028;-69
2021/04/12 08:56:39;;;;;;;3.47;2.60;;;18.30;45.30;;;;;;5039664;28;20401;-74
2021/04/12 08:59:30;;;;;;;4.40;3.03;;;18.30;45.20;;;;;;5079250;28;20104;-74
2021/04/12 09:02:09;;;;;;;4.90;2.90;;;18.30;45.30;;;;;;5083573;28;20035;-67
2021/04/12 09:05:12;;;;;;;3.55;2.75;;;18.30;45.20;;;;;;5053682;28;20132;-71
2021/04/12 09:07:59;;;;;;;4.38;3.10;;;18.20;45.10;;;;;;5069341;28;20477;-69
2021/04/12 09:11:02;;;;;;;3.60;3.25;;;18.20;45.10;;;;;;5069989;28;20438;-66
2021/04/12 09:13:56;;;;;;;3.30;2.78;;;18.10;45.20;;;;;;5080434;28;20366;-72
2021/04/12 09:16:30;;;;;;;4.53;3.45;;;18.10;45.20;;;;;;5052708;28;20028;-73
2021/04/12 09:19:17;;;;;;;9.32;3.30;;;18.00;45.20;;;;;;5057930;28;20028;-73
2021/04/12 09:22:14;;;;;;;3.50;3.08;;;17.90;45.40;;;;;;5082228;28;20054;-68
2021/04/12 09:25:03;;;;;;;5.25;4.00;;;17.80;45.60;;;;;;5089492;28;20028;-77
2021/04/12 09:27:43;;;;;;;9.23;4.15;;;17.70;46.00;;;;;;5089530;28;20842;-76
2021/04/12 09:30:24;;;;;;;6.38;4.07;;;17.50;46.20;;;;;;5070404;28;20056;-76
2021/04/12 09:33:16;;;;;;;4.75;4.07;;;17.50;46.50;;;;;;5072879;28;20032;-77
2021/04/12 09:35:56;;;;;;;7.40;4.63;;;17.30;46.70;;;;;;5091146;28;20393;-76
2021/04/12 09:38:44;;;;;;;5.32;4.20;;;17.10;47.10;;;;;;5073030;28;20020;-76
2021/04/12 09:41:10;;;;;;;5.93;4.53;;;17.00;47.40;;;;;;5071087;28;20365;-76
2021/04/12 09:44:00;;;;;;;4.10;3.50;;;17.00;47.60;;;;;;5089842;28;20031;-76
2021/04/12 09:46:47;;;;;;;8.18;4.57;;;16.90;47.70;;;;;;5091425;28;20031;-76
2021/04/12 09:49:41;;;;;;;5.47;4.40;;;16.80;48.00;;;;;;5093111;28;20046;-69
2021/04/12 09:52:31;;;;;;;8.02;4.45;;;16.80;48.10;;;;;;5072972;28;20135;-70
2021/04/12 09:55:36;;;;;;;7.88;4.72;;;16.80;48.20;;;;;;5060323;28;20040;-70
2021/04/12 09:58:30;;;;;;;5.22;4.10;;;16.80;48.20;;;;;;5088183;28;20024;-71
2021/04/12 10:01:05;;;;;;;6.70;4.32;;;16.80;48.00;;;;;;5094771;28;20024;-70
2021/04/12 10:03:36;;;;;;;5.07;4.57;;;16.80;48.00;;;;;;5078441;28;20386;-70
2021/04/12 10:06:39;;;;;;;6.40;4.70;;;16.90;47.90;;;;;;5101475;28;20074;-70
2021/04/12 10:09:26;;;;;;;5.55;4.85;;;17.00;47.40;;;;;;5087854;28;20486;-71
2021/04/12 10:12:07;;;;;;;5.55;4.82;;;17.00;46.90;;;;;;5077506;28;20054;-64
2021/04/12 10:14:43;;;;;;;7.40;5.88;;;17.10;46.60;;;;;;5092788;28;20023;-65
2021/04/12 10:17:16;;;;;;;13.02;5.65;;;17.00;45.20;;;;;;5093464;28;20103;-65
2021/04/12 10:19:53;;;;;;;8.18;5.22;;;16.90;45.30;;;;;;5091857;28;20057;-65
2021/04/12 10:22:34;;;;;;;7.43;4.80;;;16.80;44.60;;;;;;5094669;28;20047;-66
2021/04/12 10:25:06;;;;;;;5.60;4.68;;;16.70;44.50;;;;;;5074498;28;20039;-66
2021/04/12 10:27:42;;;;;;;5.15;3.90;;;16.50;44.20;;;;;;5056156;28;20033;-66
2021/04/12 10:30:19;;;;;;;4.35;3.95;;;16.50;44.00;;;;;;5077859;28;20027;-66
2021/04/12 10:32:56;;;;;;;7.63;3.42;;;16.30;43.50;;;;;;5084813;28;20025;-64
2021/04/12 10:35:36;;;;;;;3.92;2.80;;;16.10;43.70;;;;;;5077243;28;20427;-65
2021/04/12 10:38:27;;;;;;;4.10;3.58;;;15.90;43.90;;;;;;5085495;28;20485;-65
2021/04/12 10:41:22;;;;;;;3.40;2.80;;;15.70;44.00;;;;;;5093645;28;20032;-65
2021/04/12 10:44:00;;;;;;;;;;;15.60;44.10;;;;;;5094061;28;20031;-65
2021/04/12 10:46:46;;;;;;;2.85;2.05;;;15.50;44.50;;;;;;5073084;28;19915;-65
2021/04/12 10:49:19;;;;;;;2.67;1.88;;;15.30;43.90;;;;;;5078830;28;20443;-66
2021/04/12 10:51:53;;;;;;;4.70;1.80;;;14.90;44.00;;;;;;5093605;28;20031;-65
2021/04/12 10:54:35;;;;;;;2.88;1.85;;;14.70;44.50;;;;;;5091219;28;20028;-66
2021/04/12 10:57:19;;;;;;;6.68;1.50;;;14.40;45.00;;;;;;5088890;28;20061;-66
2021/04/12 11:00:16;;;;;;;2.97;1.60;;;14.20;45.20;;;;;;5075169;28;20097;-65
2021/04/12 11:03:07;;;;;;;6.55;1.08;;;14.00;45.10;;;;;;5062204;28;20024;-64
2021/04/12 11:05:35;;;;;;;3.10;1.27;;;13.80;45.40;;;;;;5077844;28;20020;-65
2021/04/12 11:08:07;;;;;;;2.80;1.70;;;13.60;45.70;;;;;;5072694;28;20040;-65
2021/04/12 11:10:55;;;;;;;2.80;1.33;;;13.40;46.10;;;;;;5078767;28;20088;-64
2021/04/12 11:14:00;;;;;;;7.10;1.15;;;13.30;46.40;;;;;;5092350;28;20482;-65
2021/04/12 11:17:13;;;;;;;0.87;0.77;;;13.10;46.70;;;;;;5076073;28;20028;-65
2021/04/12 11:20:08;;;;;;;3.63;1.30;;;13.00;47.30;;;;;;5000464;28;20680;-65
2021/04/12 11:23:21;;;;;;;2.95;1.38;;;12.90;47.50;;;;;;4990573;28;20061;-65
2021/04/12 11:26:24;;;;;;;2.60;1.38;;;12.80;47.60;;;;;;4973224;28;20039;-65
2021/04/12 11:29:05;;;;;;;3.53;1.58;;;12.70;47.70;;;;;;4974293;28;20042;-65
2021/04/12 11:31:46;;;;;;;1.65;1.00;;;12.60;47.90;;;;;;4971080;28;20390;-65
2021/04/12 11:34:25;;;;;;;2.60;1.20;;;12.60;48.00;;;;;;4985389;28;20047;-65
2021/04/12 11:37:07;;;;;;;3.63;0.90;;;12.50;48.20;;;;;;4964650;28;20122;-65
2021/04/12 11:39:36;;;;;;;1.38;0.60;;;12.50;48.60;;;;;;4986336;28;20122;-65
2021/04/12 11:42:07;;;;;;;0.95;0.90;;;12.40;49.00;;;;;;4973002;28;20026;-65
2021/04/12 11:44:42;;;;;;;1.17;0.80;;;12.30;49.60;;;;;;4987135;28;20100;-65
2021/04/12 11:47:41;;;;;;;1.38;0.80;;;12.20;50.10;;;;;;4984819;28;20035;-65
2021/04/12 11:50:24;;;;;;;1.38;0.43;;;12.10;50.80;;;;;;4977784;28;20386;-65
2021/04/12 11:52:55;;;;;;;3.63;1.70;;;12.00;51.00;;;;;;4987035;28;20040;-66
2021/04/12 11:55:24;;;;;;;1.95;1.13;;;12.00;51.60;;;;;;5071359;28;20404;-66
2021/04/12 11:57:59;;;;;;;1.40;1.20;;;11.90;51.90;;;;;;5086179;28;20028;-66
2021/04/12 12:00:43;;;;;;;0.47;0.47;;;11.80;52.20;;;;;;5071454;28;20365;-65
2021/04/12 12:03:39;;;;;;;1.13;0.70;;;11.70;52.20;;;;;;5082266;28;20016;-65
2021/04/12 12:06:11;;;;;;;0.47;0.47;;;11.50;52.00;;;;;;5090716;28;20028;-65
2021/04/12 12:08:43;;;;;;;3.00;0.65;;;11.40;52.60;;;;;;5087728;28;20028;-65
2021/04/12 12:11:28;;;;;;;6.25;1.00;;;11.40;53.50;;;;;;5075473;28;20028;-66
2021/04/12 12:14:02;;;;;;;0.95;0.85;;;11.20;54.60;;;;;;5087011;28;20029;-67
2021/04/12 12:16:36;;;;;;;1.85;0.95;;;11.10;55.80;;;;;;5082950;28;20035;-69
2021/04/12 12:19:20;;;;;;;1.57;1.20;;;10.90;56.70;;;;;;5085708;28;20478;-69
2021/04/12 12:22:04;;;;;;;2.07;1.20;;;10.80;57.10;;;;;;5083139;28;20364;-70
2021/04/12 12:24:57;;;;;;;0.98;0.98;;;10.70;57.70;;;;;;5071184;28;20032;-69
2021/04/12 12:27:32;;;;;;;1.33;1.05;;;10.50;57.80;;;;;;5053027;28;20028;-65
2021/04/12 12:30:04;;;;;;;1.92;1.13;;;10.20;58.60;;;;;;5068984;28;20493;-65
2021/04/12 12:32:54;;;;;;;2.80;1.55;;;10.20;58.60;;;;;;5071405;28;20210;-65
2021/04/12 12:35:37;;;;;;;1.30;1.20;;;10.10;59.20;;;;;;5090323;28;20042;-64
2021/04/12 12:38:17;;;;;;;1.90;1.38;;;10.00;59.80;;;;;;5085642;28;20089;-66
2021/04/12 12:40:57;;;;;;;1.80;1.50;;;9.90;59.50;;;;;;5085144;28;20028;-65
2021/04/12 12:43:35;;;;;;;2.38;1.50;;;9.90;59.60;;;;;;5091277;28;20024;-65
2021/04/12 12:46:24;;;;;;;2.90;2.28;;;9.80;59.80;;;;;;5091239;28;20028;-64
2021/04/12 12:49:07;;;;;;;3.95;1.90;;;9.80;60.40;;;;;;5075967;28;20041;-65
2021/04/12 12:51:46;;;;;;;1.85;1.75;;;9.80;60.70;;;;;;5091118;28;20040;-64
2021/04/12 12:54:37;;;;;;;4.20;1.60;;;9.80;60.60;;;;;;5082828;28;20063;-64
2021/04/12 12:57:06;;;;;;;7.25;1.80;;;9.70;60.80;;;;;;5076729;28;20485;-64
2021/04/12 12:59:40;;;;;;;2.30;2.00;;;9.70;60.90;;;;;;5070505;28;20393;-67
2021/04/12 13:02:22;;;;;;;2.30;2.00;;;9.70;61.20;;;;;;5074844;28;20509;-65
2021/04/12 13:05:13;;;;;;;2.10;1.85;;;9.60;60.80;;;;;;5071086;28;20413;-64
2021/04/12 13:07:40;;;;;;;1.80;1.60;;;9.60;61.50;;;;;;5071120;28;20435;-64
2021/04/12 13:10:23;;;;;;;1.73;1.58;;;9.50;61.80;;;;;;5085455;28;20067;-64
2021/04/12 13:12:52;;;;;;;3.83;1.88;;;9.60;62.50;;;;;;5080955;28;20545;-64
2021/04/12 13:15:26;;;;;;;1.90;1.50;;;9.50;62.30;;;;;;5090795;28;20043;-64
2021/04/12 13:18:23;;;;;;;1.60;1.42;;;9.50;62.30;;;;;;5090822;28;20024;-64
2021/04/12 13:20:53;;;;;;;1.70;1.40;;;9.50;62.50;;;;;;5081955;28;20064;-64
2021/04/12 13:23:19;;;;;;;1.67;1.35;;;9.40;61.80;;;;;;5084392;28;20024;-64
2021/04/12 13:25:47;;;;;;;1.40;1.30;;;9.40;62.30;;;;;;5088200;28;20038;-64
2021/04/12 13:28:23;;;;;;;1.77;1.10;;;9.30;62.70;;;;;;5081047;28;20031;-64
2021/04/12 13:31:02;;;;;;;1.90;1.25;;;9.30;63.50;;;;;;5070467;28;20094;-64
2021/04/12 13:33:45;;;;;;;2.40;1.50;;;9.20;63.90;;;;;;5070889;28;20558;-64
2021/04/12 13:36:24;;;;;;;1.08;0.98;;;9.20;63.90;;;;;;5094241;28;20028;-64
2021/04/12 13:38:53;;;;;;;1.48;1.20;;;9.20;64.30;;;;;;5081902;28;20032;-64
2021/04/12 13:41:32;;;;;;;2.08;1.30;;;9.20;64.50;;;;;;5092101;28;20024;-64
2021/04/12 13:44:07;;;;;;;3.22;1.00;;;9.20;64.90;;;;;;5076877;28;20028;-64
2021/04/12 13:46:56;;;;;;;1.70;1.30;;;9.20;64.70;;;;;;5073697;28;20085;-65
2021/04/12 13:49:41;;;;;;;2.95;1.83;;;9.20;65.80;;;;;;5080828;28;20075;-64
2021/04/12 13:52:18;;;;;;;3.65;1.20;;;9.20;65.10;;;;;;5086955;28;20052;-64
2021/04/12 13:54:56;;;;;;;1.42;1.33;;;9.20;65.30;;;;;;5087160;28;20114;-64
2021/04/12 13:57:34;;;;;;;1.75;1.35;;;9.20;65.20;;;;;;5100082;28;20120;-64
2021/04/12 14:00:26;;;;;;;3.83;1.20;;;9.20;65.30;;;;;;5078547;28;20024;-65
2021/04/12 14:03:22;;;;;;;1.80;1.50;;;9.20;65.30;;;;;;5074330;28;20047;-64
2021/04/12 14:06:14;;;;;;;1.25;1.10;;;9.20;65.30;;;;;;5087871;28;20028;-64
2021/04/12 14:08:52;;;;;;;1.17;1.08;;;9.20;65.00;;;;;;5082718;28;20052;-64
2021/04/12 14:11:27;;;;;;;1.33;1.08;;;9.20;64.60;;;;;;5073677;28;20032;-64
2021/04/12 14:14:04;;;;;;;1.63;1.23;;;9.20;64.70;;;;;;5073743;28;20020;-64
2021/04/12 14:16:33;;;;;;;1.20;1.10;;;9.20;64.70;;;;;;5088915;28;20024;-64
2021/04/12 14:19:10;;;;;;;1.10;1.00;;;9.20;64.70;;;;;;5091798;28;20358;-66
2021/04/12 14:21:40;;;;;;;1.30;1.20;;;9.20;65.40;;;;;;5073484;28;20032;-64
2021/04/12 14:24:26;;;;;;;2.42;1.38;;;9.20;65.80;;;;;;5073319;28;20743;-64